sensor_id;sensor_type;location;lat;lon;timestamp;pressure;altitude;pressure_sealevel;temperature;humidity
17072;BME280;7731;50.720;6.912;2023-04-21T01:41:32;99789.31;;;7.33;100.00
17072;BME280;7731;50.720;6.912;2023-04-21T01:44:03;99783.38;;;7.33;100.00
17072;BME280;7731;50.720;6.912;2023-04-21T01:46:33;99792.56;;;7.37;100.00
17072;BME280;7731;50.720;6.912;2023-04-21T01:49:04;99784.38;;;7.29;100.00
17072;BME280;7731;50.720;6.912;2023-04-21T01:51:35;99782.03;;;7.24;100.00
17072;BME280;7731;50.720;6.912;2023-04-21T01:54:05;99777.75;;;7.25;100.00
17072;BME280;7731;50.720;6.912;2023-04-21T01:56:38;99779.28;;;7.08;100.00
17072;BME280;7731;50.720;6.912;2023-04-21T01:59:16;99773.38;;;7.06;100.00
17072;BME280;7731;50.720;6.912;2023-04-21T02:01:47;99770.13;;;7.03;100.00
17072;BME280;7731;50.720;6.912;2023-04-21T02:04:18;99780.53;;;6.98;100.00
17072;BME280;7731;50.720;6.912;2023-04-21T02:06:48;99790.06;;;6.72;100.00
17072;BME280;7731;50.720;6.912;2023-04-21T02:09:18;99792.56;;;6.74;100.00
17072;BME280;7731;50.720;6.912;2023-04-21T02:11:54;99788.50;;;6.90;100.00
17072;BME280;7731;50.720;6.912;2023-04-21T02:14:25;99783.66;;;7.05;100.00
17072;BME280;7731;50.720;6.912;2023-04-21T02:17:02;99788.00;;;7.03;100.00
17072;BME280;7731;50.720;6.912;2023-04-21T02:19:33;99781.47;;;7.18;100.00
17072;BME280;7731;50.720;6.912;2023-04-21T02:22:03;99788.84;;;7.03;100.00
17072;BME280;7731;50.720;6.912;2023-04-21T02:24:34;99792.38;;;7.21;100.00
17072;BME280;7731;50.720;6.912;2023-04-21T02:27:07;99785.47;;;7.23;100.00
17072;BME280;7731;50.720;6.912;2023-04-21T02:29:37;99785.84;;;7.14;100.00
17072;BME280;7731;50.720;6.912;2023-04-21T02:32:07;99782.09;;;7.23;100.00
17072;BME280;7731;50.720;6.912;2023-04-21T02:34:51;99777.22;;;7.17;100.00
17072;BME280;7731;50.720;6.912;2023-04-21T02:37:22;99778.88;;;6.97;100.00
17072;BME280;7731;50.720;6.912;2023-04-21T02:39:52;99785.56;;;6.79;100.00
17072;BME280;7731;50.720;6.912;2023-04-21T02:42:25;99782.56;;;6.68;100.00
17072;BME280;7731;50.720;6.912;2023-04-21T02:44:55;99791.63;;;6.54;100.00
17072;BME280;7731;50.720;6.912;2023-04-21T02:47:26;99797.59;;;6.53;100.00
17072;BME280;7731;50.720;6.912;2023-04-21T02:49:56;99786.97;;;6.64;100.00
17072;BME280;7731;50.720;6.912;2023-04-21T02:52:26;99790.44;;;6.85;100.00
17072;BME280;7731;50.720;6.912;2023-04-21T02:54:56;99790.53;;;6.82;100.00
17072;BME280;7731;50.720;6.912;2023-04-21T02:57:29;99785.56;;;6.79;100.00
17072;BME280;7731;50.720;6.912;2023-04-21T03:00:08;99785.81;;;6.73;100.00
17072;BME280;7731;50.720;6.912;2023-04-21T03:02:38;99789.25;;;6.72;100.00
17072;BME280;7731;50.720;6.912;2023-04-21T03:05:09;99785.94;;;6.70;100.00
17072;BME280;7731;50.720;6.912;2023-04-21T03:07:41;99780.75;;;6.71;100.00
17072;BME280;7731;50.720;6.912;2023-04-21T03:10:11;99781.88;;;6.64;100.00
17072;BME280;7731;50.720;6.912;2023-04-21T03:12:44;99786.75;;;6.48;100.00
17072;BME280;7731;50.720;6.912;2023-04-21T03:15:15;99786.66;;;6.28;100.00
17072;BME280;7731;50.720;6.912;2023-04-21T03:17:46;99788.28;;;6.30;100.00
17072;BME280;7731;50.720;6.912;2023-04-21T03:20:17;99796.91;;;6.26;100.00
17072;BME280;7731;50.720;6.912;2023-04-21T03:22:48;99799.63;;;6.21;100.00
17072;BME280;7731;50.720;6.912;2023-04-21T03:25:19;99803.19;;;6.17;100.00
17072;BME280;7731;50.720;6.912;2023-04-21T03:27:52;99794.53;;;6.21;100.00
17072;BME280;7731;50.720;6.912;2023-04-21T03:30:23;99791.78;;;6.04;100.00
17072;BME280;7731;50.720;6.912;2023-04-21T03:32:53;99800.31;;;6.03;100.00
17072;BME280;7731;50.720;6.912;2023-04-21T03:35:25;99794.38;;;6.02;100.00
17072;BME280;7731;50.720;6.912;2023-04-21T03:37:57;99788.59;;;5.97;100.00
17072;BME280;7731;50.720;6.912;2023-04-21T03:40:30;99792.19;;;5.92;100.00
17072;BME280;7731;50.720;6.912;2023-04-21T03:43:03;99794.75;;;5.92;100.00
17072;BME280;7731;50.720;6.912;2023-04-21T03:45:34;99793.78;;;5.94;100.00
17072;BME280;7731;50.720;6.912;2023-04-21T03:48:05;99796.78;;;5.82;100.00
17072;BME280;7731;50.720;6.912;2023-04-21T03:50:37;99789.38;;;5.74;100.00
17072;BME280;7731;50.720;6.912;2023-04-21T03:53:07;99803.03;;;5.73;100.00
17072;BME280;7731;50.720;6.912;2023-04-21T03:55:37;99803.94;;;5.96;100.00
17072;BME280;7731;50.720;6.912;2023-04-21T03:58:10;99795.63;;;5.90;100.00
17072;BME280;7731;50.720;6.912;2023-04-21T04:00:40;99802.28;;;5.69;100.00
17072;BME280;7731;50.720;6.912;2023-04-21T04:03:10;99802.28;;;5.95;100.00
17072;BME280;7731;50.720;6.912;2023-04-21T04:05:41;99802.09;;;6.01;100.00
17072;BME280;7731;50.720;6.912;2023-04-21T12:57:53;99508.16;;;18.21;43.30
17072;BME280;7731;50.720;6.912;2023-04-21T13:00:23;99509.00;;;18.12;43.96
17072;BME280;7731;50.720;6.912;2023-04-21T13:02:54;99501.44;;;18.28;44.64
17072;BME280;7731;50.720;6.912;2023-04-21T13:05:25;99500.41;;;17.82;45.92
17072;BME280;7731;50.720;6.912;2023-04-21T13:07:55;99496.16;;;18.00;45.45
17072;BME280;7731;50.720;6.912;2023-04-21T13:10:25;99503.94;;;17.81;45.71
17072;BME280;7731;50.720;6.912;2023-04-21T13:12:58;99492.88;;;17.79;46.13
17072;BME280;7731;50.720;6.912;2023-04-21T13:15:28;99502.88;;;17.54;46.08
17072;BME280;7731;50.720;6.912;2023-04-21T13:17:58;99486.97;;;17.18;46.92
17072;BME280;7731;50.720;6.912;2023-04-21T13:20:29;99481.13;;;17.55;44.51
17072;BME280;7731;50.720;6.912;2023-04-21T13:22:59;99474.16;;;17.46;43.86
17072;BME280;7731;50.720;6.912;2023-04-21T13:25:31;99481.50;;;17.21;45.56
17072;BME280;7731;50.720;6.912;2023-04-21T13:28:04;99476.34;;;17.41;45.16
17072;BME280;7731;50.720;6.912;2023-04-21T13:30:35;99462.09;;;17.84;44.54
17072;BME280;7731;50.720;6.912;2023-04-21T13:33:07;99470.13;;;18.20;43.51
17072;BME280;7731;50.720;6.912;2023-04-21T13:35:38;99464.84;;;18.39;43.99
17072;BME280;7731;50.720;6.912;2023-04-21T13:38:08;99463.88;;;17.83;45.34
17072;BME280;7731;50.720;6.912;2023-04-21T13:40:39;99460.88;;;17.98;44.85
17072;BME280;7731;50.720;6.912;2023-04-21T13:43:13;99455.16;;;17.65;45.63
17072;BME280;7731;50.720;6.912;2023-04-21T13:45:44;99455.53;;;17.99;44.53
17072;BME280;7731;50.720;6.912;2023-04-21T13:48:16;99448.06;;;18.24;44.82
17072;BME280;7731;50.720;6.912;2023-04-21T13:50:46;99449.22;;;18.12;44.16
17072;BME280;7731;50.720;6.912;2023-04-21T13:53:17;99442.38;;;18.11;44.78
17072;BME280;7731;50.720;6.912;2023-04-21T13:55:48;99437.88;;;18.41;43.60
17072;BME280;7731;50.720;6.912;2023-04-21T13:58:21;99439.94;;;18.09;43.49
17072;BME280;7731;50.720;6.912;2023-04-21T14:00:52;99440.41;;;18.32;44.13
17072;BME280;7731;50.720;6.912;2023-04-21T14:03:22;99430.81;;;18.33;44.34
17072;BME280;7731;50.720;6.912;2023-04-21T14:05:53;99425.75;;;17.64;44.44
17072;BME280;7731;50.720;6.912;2023-04-21T14:08:24;99418.13;;;18.20;43.97
17072;BME280;7731;50.720;6.912;2023-04-21T14:10:55;99414.19;;;18.16;44.29
17072;BME280;7731;50.720;6.912;2023-04-21T14:13:30;99405.16;;;18.48;43.23
17072;BME280;7731;50.720;6.912;2023-04-21T14:16:14;99401.28;;;18.52;43.36
17072;BME280;7731;50.720;6.912;2023-04-21T14:18:44;99395.59;;;18.66;43.72
17072;BME280;7731;50.720;6.912;2023-04-21T14:21:14;99386.00;;;18.11;45.05
17072;BME280;7731;50.720;6.912;2023-04-21T14:23:44;99390.72;;;17.88;45.58
17072;BME280;7731;50.720;6.912;2023-04-21T14:26:15;99391.56;;;17.79;45.38
17072;BME280;7731;50.720;6.912;2023-04-21T14:28:48;99388.06;;;17.41;46.74
17072;BME280;7731;50.720;6.912;2023-04-21T14:31:19;99388.31;;;17.57;46.41
17072;BME280;7731;50.720;6.912;2023-04-21T14:33:49;99388.63;;;17.25;45.47
17072;BME280;7731;50.720;6.912;2023-04-21T14:36:19;99380.91;;;16.84;46.73
17072;BME280;7731;50.720;6.912;2023-04-21T14:38:50;99380.97;;;17.04;47.64
17072;BME280;7731;50.720;6.912;2023-04-21T14:41:20;99374.81;;;17.14;48.19
17072;BME280;7731;50.720;6.912;2023-04-21T14:43:53;99374.13;;;17.22;49.68
17072;BME280;7731;50.720;6.912;2023-04-21T14:46:25;99367.59;;;17.28;49.46
17072;BME280;7731;50.720;6.912;2023-04-21T14:48:56;99378.50;;;17.31;50.40
17072;BME280;7731;50.720;6.912;2023-04-21T14:51:27;99386.44;;;17.20;50.64
17072;BME280;7731;50.720;6.912;2023-04-21T14:53:58;99375.50;;;16.97;51.25
17072;BME280;7731;50.720;6.912;2023-04-21T14:56:28;99375.78;;;17.23;51.29
17072;BME280;7731;50.720;6.912;2023-04-21T14:59:01;99384.66;;;17.11;50.96
17072;BME280;7731;50.720;6.912;2023-04-21T15:01:31;99355.81;;;17.43;50.73
17072;BME280;7731;50.720;6.912;2023-04-21T15:04:02;99352.06;;;17.65;48.90
17072;BME280;7731;50.720;6.912;2023-04-21T15:06:32;99351.13;;;17.66;49.98
17072;BME280;7731;50.720;6.912;2023-04-21T15:20:13;99345.28;;;17.35;51.66
17072;BME280;7731;50.720;6.912;2023-04-21T21:48:18;99347.50;;;9.25;100.00
17072;BME280;7731;50.720;6.912;2023-04-21T21:50:50;99345.63;;;9.43;100.00
17072;BME280;7731;50.720;6.912;2023-04-21T21:53:20;99348.50;;;9.22;100.00
17072;BME280;7731;50.720;6.912;2023-04-21T21:55:50;99345.91;;;9.08;100.00
17072;BME280;7731;50.720;6.912;2023-04-21T21:58:20;99344.66;;;8.99;100.00
17072;BME280;7731;50.720;6.912;2023-04-21T22:00:51;99341.63;;;8.92;100.00
17072;BME280;7731;50.720;6.912;2023-04-21T22:03:28;99335.66;;;8.92;100.00
17072;BME280;7731;50.720;6.912;2023-04-21T22:05:58;99339.78;;;8.94;100.00
17072;BME280;7731;50.720;6.912;2023-04-21T22:08:29;99331.47;;;8.91;100.00
17072;BME280;7731;50.720;6.912;2023-04-21T22:11:00;99341.28;;;8.99;100.00
17072;BME280;7731;50.720;6.912;2023-04-21T22:13:32;99335.00;;;8.88;100.00
17072;BME280;7731;50.720;6.912;2023-04-21T22:16:02;99332.88;;;8.81;100.00
17072;BME280;7731;50.720;6.912;2023-04-21T22:18:35;99337.69;;;8.55;100.00
17072;BME280;7731;50.720;6.912;2023-04-21T22:21:06;99340.13;;;8.40;100.00
17072;BME280;7731;50.720;6.912;2023-04-21T22:23:36;99332.50;;;8.23;100.00
17072;BME280;7731;50.720;6.912;2023-04-21T22:26:06;99329.13;;;8.38;100.00
17072;BME280;7731;50.720;6.912;2023-04-21T22:28:40;99327.84;;;8.47;100.00
17072;BME280;7731;50.720;6.912;2023-04-21T22:31:10;99327.88;;;8.63;100.00
17072;BME280;7731;50.720;6.912;2023-04-21T22:33:43;99323.31;;;8.68;100.00
17072;BME280;7731;50.720;6.912;2023-04-21T22:36:13;99327.25;;;8.90;100.00
17072;BME280;7731;50.720;6.912;2023-04-21T22:38:43;99321.09;;;9.08;100.00
17072;BME280;7731;50.720;6.912;2023-04-21T22:41:13;99320.00;;;9.13;100.00
17072;BME280;7731;50.720;6.912;2023-04-21T22:43:44;99321.38;;;9.18;100.00
17072;BME280;7731;50.720;6.912;2023-04-21T22:46:14;99311.81;;;9.36;100.00
17072;BME280;7731;50.720;6.912;2023-04-21T22:48:47;99311.56;;;9.10;100.00
17072;BME280;7731;50.720;6.912;2023-04-21T22:51:20;99309.78;;;8.66;100.00
17072;BME280;7731;50.720;6.912;2023-04-21T22:53:50;99315.03;;;8.31;100.00
17072;BME280;7731;50.720;6.912;2023-04-21T22:56:21;99323.28;;;8.20;100.00
17072;BME280;7731;50.720;6.912;2023-04-21T22:58:51;99325.56;;;8.09;100.00
17072;BME280;7731;50.720;6.912;2023-04-21T23:01:22;99317.63;;;8.14;100.00
17072;BME280;7731;50.720;6.912;2023-04-21T23:03:55;99325.69;;;7.90;100.00
17072;BME280;7731;50.720;6.912;2023-04-21T23:06:25;99324.56;;;8.12;100.00
17072;BME280;7731;50.720;6.912;2023-04-21T23:08:55;99324.91;;;8.05;100.00
17072;BME280;7731;50.720;6.912;2023-04-21T23:11:26;99323.75;;;8.27;100.00
17072;BME280;7731;50.720;6.912;2023-04-21T23:13:58;99320.38;;;8.43;100.00
17072;BME280;7731;50.720;6.912;2023-04-21T23:16:28;99326.81;;;8.18;100.00
17072;BME280;7731;50.720;6.912;2023-04-21T23:19:01;99320.16;;;8.31;100.00
17072;BME280;7731;50.720;6.912;2023-04-21T23:21:31;99326.44;;;8.57;100.00
17072;BME280;7731;50.720;6.912;2023-04-21T23:24:06;99323.78;;;8.43;100.00
17072;BME280;7731;50.720;6.912;2023-04-21T23:26:37;99312.47;;;8.31;100.00
17072;BME280;7731;50.720;6.912;2023-04-21T23:29:10;99318.81;;;8.08;100.00
17072;BME280;7731;50.720;6.912;2023-04-21T23:31:40;99316.00;;;8.13;100.00
17072;BME280;7731;50.720;6.912;2023-04-21T23:34:13;99316.75;;;8.15;100.00
17072;BME280;7731;50.720;6.912;2023-04-21T23:36:44;99321.84;;;8.15;100.00
17072;BME280;7731;50.720;6.912;2023-04-21T23:39:14;99322.88;;;8.28;100.00
17072;BME280;7731;50.720;6.912;2023-04-21T23:41:44;99321.38;;;8.08;100.00
17072;BME280;7731;50.720;6.912;2023-04-21T23:44:16;99323.91;;;8.08;100.00
17072;BME280;7731;50.720;6.912;2023-04-21T23:46:46;99330.16;;;8.02;100.00
17072;BME280;7731;50.720;6.912;2023-04-21T23:49:23;99331.69;;;8.07;100.00
17072;BME280;7731;50.720;6.912;2023-04-21T23:51:54;99328.34;;;8.04;100.00
17072;BME280;7731;50.720;6.912;2023-04-21T23:54:25;99329.03;;;8.08;100.00
17072;BME280;7731;50.720;6.912;2023-04-21T23:56:55;99324.72;;;8.09;100.00
17072;BME280;7731;50.720;6.912;2023-04-21T23:59:26;99326.28;;;7.95;100.00
